createdAt,value
2023-03-18T00:01:12.816Z,3.93
2023-03-18T00:03:40.982Z,3.87
2023-03-18T00:06:19.479Z,3.86
2023-03-18T00:08:49.211Z,3.80
2023-03-18T00:11:19.570Z,3.84
2023-03-18T00:13:49.531Z,3.75
2023-03-18T00:16:17.878Z,3.79
2023-03-18T00:18:46.000Z,3.73
2023-03-18T00:21:14.483Z,3.74
2023-03-18T00:23:43.001Z,3.75
2023-03-18T00:26:10.776Z,3.69
2023-03-18T00:28:42.313Z,3.70
2023-03-18T00:31:13.337Z,3.65
2023-03-18T00:33:46.801Z,3.63
2023-03-18T00:36:18.569Z,3.62
2023-03-18T00:38:51.179Z,3.65
2023-03-18T00:41:19.332Z,3.59
2023-03-18T00:43:57.876Z,3.64
2023-03-18T00:46:28.988Z,3.62
2023-03-18T00:49:00.793Z,3.54
2023-03-18T00:51:31.832Z,3.63
2023-03-18T00:54:03.201Z,3.58
2023-03-18T00:56:32.724Z,3.57
2023-03-18T00:59:01.446Z,3.51
2023-03-18T01:01:29.985Z,3.54
2023-03-18T01:04:00.849Z,3.46
2023-03-18T01:06:32.558Z,3.54
2023-03-18T01:09:01.901Z,3.49
2023-03-18T01:11:30.357Z,3.45
2023-03-18T01:13:59.981Z,3.44
2023-03-18T01:16:28.832Z,3.37
2023-03-18T01:18:57.520Z,3.46
2023-03-18T01:21:26.178Z,3.38
2023-03-18T01:23:57.780Z,3.36
2023-03-18T01:26:27.283Z,3.46
2023-03-18T01:28:58.030Z,3.36
2023-03-18T01:31:26.106Z,3.39
2023-03-18T01:33:58.325Z,3.38
2023-03-18T01:36:26.064Z,3.31
2023-03-18T01:39:07.947Z,3.27
2023-03-18T01:41:37.320Z,3.26
2023-03-18T01:44:14.435Z,3.28
2023-03-18T01:46:45.967Z,3.23
2023-03-18T01:49:29.068Z,3.29
2023-03-18T01:52:02.868Z,3.30
2023-03-18T01:54:34.120Z,3.30
2023-03-18T01:57:02.951Z,3.24
2023-03-18T01:59:34.098Z,3.26
2023-03-18T02:02:11.503Z,3.20
2023-03-18T02:04:46.385Z,3.19
2023-03-18T02:07:21.313Z,3.09
2023-03-18T02:09:51.311Z,3.14
2023-03-18T02:12:24.875Z,3.11
2023-03-18T02:14:57.131Z,3.08
2023-03-18T02:17:28.406Z,3.11
2023-03-18T02:20:18.957Z,3.16
2023-03-18T02:22:54.185Z,3.05
2023-03-18T02:25:50.075Z,3.12
2023-03-18T02:28:23.981Z,3.02
2023-03-18T02:30:56.349Z,3.06
2023-03-18T02:33:30.088Z,3.01
2023-03-18T02:36:04.742Z,3.05
2023-03-18T02:38:44.245Z,3.00
2023-03-18T02:41:20.744Z,3.05
2023-03-18T02:43:50.608Z,3.02
2023-03-18T02:46:41.276Z,3.06
2023-03-18T02:49:11.303Z,3.00
2023-03-18T02:51:40.074Z,2.98
2023-03-18T02:54:30.359Z,2.96
2023-03-18T02:56:59.105Z,2.91
2023-03-18T02:59:27.807Z,2.96
2023-03-18T03:01:58.222Z,2.88
2023-03-18T03:04:27.343Z,2.93
2023-03-18T03:06:57.857Z,2.93
2023-03-18T03:09:37.178Z,2.89
2023-03-18T03:12:07.985Z,2.82
2023-03-18T03:14:41.082Z,2.83
2023-03-18T03:17:10.232Z,2.90
2023-03-18T03:19:38.990Z,2.91
2023-03-18T03:22:07.670Z,2.88
2023-03-18T03:24:37.722Z,2.88
2023-03-18T03:27:07.995Z,2.75
2023-03-18T03:29:35.856Z,2.84
2023-03-18T03:32:04.551Z,2.87
2023-03-18T03:34:32.282Z,2.90
2023-03-18T03:37:00.388Z,2.81
2023-03-18T03:39:28.584Z,2.80
2023-03-18T03:41:57.103Z,2.83
2023-03-18T03:44:24.732Z,2.87
2023-03-18T03:46:53.321Z,2.90
2023-03-18T03:49:23.238Z,2.88
2023-03-18T03:51:51.828Z,2.91
2023-03-18T03:54:20.565Z,2.89
2023-03-18T03:56:49.100Z,2.83
2023-03-18T03:59:17.861Z,2.95
2023-03-18T04:02:04.957Z,2.79
2023-03-18T04:04:32.990Z,2.87
2023-03-18T04:07:01.771Z,2.86
2023-03-18T04:09:29.716Z,2.80
2023-03-18T04:11:58.191Z,2.77
2023-03-18T04:14:26.719Z,2.77
2023-03-18T04:16:58.429Z,2.72
2023-03-18T04:19:27.828Z,2.75
2023-03-18T04:21:56.923Z,2.80
2023-03-18T04:24:26.540Z,2.83
2023-03-18T04:26:55.340Z,2.78
2023-03-18T04:29:23.707Z,2.76
2023-03-18T04:31:52.056Z,2.78
2023-03-18T04:34:22.769Z,2.80
2023-03-18T04:36:51.037Z,2.70
2023-03-18T04:39:19.533Z,2.66
2023-03-18T04:41:48.468Z,2.75
2023-03-18T04:44:17.584Z,2.71
2023-03-18T04:46:56.561Z,2.72
2023-03-18T04:49:25.834Z,2.60
2023-03-18T04:51:55.658Z,2.71
2023-03-18T04:54:29.311Z,2.58
2023-03-18T04:57:01.894Z,2.61
2023-03-18T04:59:33.026Z,2.59
2023-03-18T05:02:05.116Z,2.61
2023-03-18T05:04:34.177Z,2.68
2023-03-18T05:07:02.684Z,2.74
2023-03-18T05:09:36.177Z,2.72
2023-03-18T05:12:05.846Z,2.76
2023-03-18T05:14:37.791Z,2.93
2023-03-18T05:17:06.225Z,3.01
2023-03-18T05:19:37.977Z,3.13
2023-03-18T05:22:14.231Z,3.23
2023-03-18T05:24:43.865Z,3.28
2023-03-18T05:27:12.553Z,3.43
2023-03-18T05:29:45.212Z,3.53
2023-03-18T05:32:20.831Z,3.70
2023-03-18T05:34:55.299Z,3.77
2023-03-18T05:37:24.169Z,3.74
2023-03-18T05:40:00.469Z,3.75
2023-03-18T05:42:29.588Z,3.93
2023-03-18T05:44:58.395Z,4.03
2023-03-18T05:47:28.313Z,4.02
2023-03-18T05:50:05.340Z,3.92
2023-03-18T05:52:35.718Z,4.11
2023-03-18T05:55:06.822Z,4.18
2023-03-18T05:57:39.134Z,4.29
2023-03-18T06:00:10.772Z,4.43
2023-03-18T06:02:47.246Z,4.57
2023-03-18T06:05:16.939Z,4.68
2023-03-18T06:07:47.474Z,4.93
2023-03-18T06:10:15.621Z,5.01
2023-03-18T06:12:46.076Z,5.42
2023-03-18T06:15:13.867Z,5.53
2023-03-18T06:17:42.502Z,5.65
2023-03-18T06:20:12.256Z,5.63
2023-03-18T06:22:40.750Z,5.72
2023-03-18T06:25:08.643Z,5.65
2023-03-18T06:27:39.458Z,5.56
2023-03-18T06:30:07.977Z,5.45
2023-03-18T06:32:38.633Z,5.47
2023-03-18T06:35:07.452Z,5.62
2023-03-18T06:37:39.412Z,5.65
2023-03-18T06:40:09.681Z,5.96
2023-03-18T06:42:38.559Z,5.91
2023-03-18T06:45:18.583Z,6.05
2023-03-18T06:47:53.823Z,6.15
2023-03-18T06:50:22.576Z,6.34
2023-03-18T06:52:51.146Z,6.46
2023-03-18T06:55:26.647Z,6.39
2023-03-18T06:57:55.285Z,6.36
2023-03-18T07:00:28.954Z,6.18
2023-03-18T07:02:58.529Z,6.23
2023-03-18T07:05:28.744Z,6.40
2023-03-18T07:07:57.047Z,6.40
2023-03-18T07:10:28.490Z,6.43
2023-03-18T07:13:03.661Z,6.37
2023-03-18T07:15:32.253Z,6.41
2023-03-18T07:18:03.444Z,6.43
2023-03-18T07:20:33.168Z,6.50
2023-03-18T07:23:02.074Z,6.71
2023-03-18T07:25:32.372Z,6.90
2023-03-18T07:28:01.023Z,7.20
2023-03-18T07:30:29.322Z,7.38
2023-03-18T07:32:58.315Z,7.47
2023-03-18T07:35:28.368Z,7.28
2023-03-18T07:37:57.263Z,7.23
2023-03-18T07:40:24.941Z,7.29
2023-03-18T07:42:54.117Z,7.34
2023-03-18T07:45:21.919Z,7.41
2023-03-18T07:47:50.550Z,7.56
2023-03-18T07:50:18.820Z,7.80
2023-03-18T07:52:47.978Z,7.89
2023-03-18T07:55:16.539Z,8.06
2023-03-18T07:57:44.663Z,8.02
2023-03-18T08:00:14.154Z,8.01
2023-03-18T08:02:42.841Z,8.08
2023-03-18T08:05:11.223Z,7.86
2023-03-18T08:07:39.504Z,8.14
2023-03-18T08:10:09.238Z,8.34
2023-03-18T08:12:51.659Z,8.30
2023-03-18T08:15:20.346Z,8.34
2023-03-18T08:17:48.753Z,8.25
2023-03-18T08:20:16.918Z,8.42
2023-03-18T08:22:46.256Z,8.59
2023-03-18T08:25:14.166Z,8.70
2023-03-18T08:27:42.626Z,8.45
2023-03-18T08:30:11.388Z,8.46
2023-03-18T08:32:39.534Z,8.61
2023-03-18T08:35:07.908Z,8.84
2023-03-18T08:37:37.064Z,8.78
2023-03-18T08:40:06.299Z,8.78
2023-03-18T08:42:34.450Z,9.03
2023-03-18T08:45:03.001Z,8.90
2023-03-18T08:47:32.032Z,8.90
2023-03-18T08:49:59.653Z,9.00
2023-03-18T08:52:27.907Z,9.18
2023-03-18T08:54:55.732Z,9.30
2023-03-18T08:57:24.171Z,9.31
2023-03-18T08:59:52.043Z,9.59
2023-03-18T09:02:20.769Z,9.56
2023-03-18T09:04:49.532Z,9.61
2023-03-18T09:07:19.187Z,9.64
2023-03-18T09:09:46.976Z,9.69
2023-03-18T09:12:15.658Z,9.72
2023-03-18T09:14:44.384Z,9.63
2023-03-18T09:17:13.067Z,9.47
2023-03-18T09:19:40.978Z,9.53
2023-03-18T09:22:12.433Z,9.61
2023-03-18T09:24:41.258Z,9.70
2023-03-18T09:27:09.678Z,9.67
2023-03-18T09:29:37.438Z,9.74
2023-03-18T09:32:06.332Z,9.93
2023-03-18T09:34:34.164Z,10.00
2023-03-18T09:37:02.587Z,10.15
2023-03-18T09:39:30.333Z,9.91
2023-03-18T09:42:17.348Z,9.51
2023-03-18T09:44:45.619Z,9.44
2023-03-18T09:47:36.666Z,9.44
2023-03-18T09:50:11.165Z,9.23
2023-03-18T09:52:48.953Z,9.20
2023-03-18T09:55:28.041Z,9.40
2023-03-18T09:58:03.562Z,9.57
2023-03-18T10:00:35.616Z,9.60
2023-03-18T10:03:20.156Z,9.55
2023-03-18T10:05:52.854Z,9.61
2023-03-18T10:08:52.344Z,9.56
2023-03-18T10:11:27.961Z,9.72
2023-03-18T10:14:09.297Z,9.68
2023-03-18T10:17:06.517Z,9.66
2023-03-18T10:19:35.262Z,9.75
2023-03-18T10:22:30.228Z,9.91
2023-03-18T10:25:01.777Z,9.64
2023-03-18T10:28:06.970Z,9.84
2023-03-18T10:30:46.142Z,9.88
2023-03-18T10:33:19.278Z,9.81
2023-03-18T10:36:13.748Z,9.74
2023-03-18T10:38:45.173Z,9.80
2023-03-18T10:41:17.935Z,9.96
2023-03-18T10:43:48.433Z,10.02
2023-03-18T10:46:17.377Z,10.15
2023-03-18T10:48:52.803Z,10.37
2023-03-18T10:51:31.666Z,10.66
2023-03-18T10:54:22.584Z,10.68
2023-03-18T10:56:51.253Z,10.88
2023-03-18T10:59:21.060Z,10.75
2023-03-18T11:01:54.658Z,10.76
2023-03-18T11:04:24.291Z,10.82
2023-03-18T11:07:04.006Z,10.61
2023-03-18T11:09:34.460Z,10.40
2023-03-18T11:12:29.414Z,10.38
2023-03-18T11:14:58.412Z,10.49
2023-03-18T11:17:35.691Z,10.61
2023-03-18T11:20:21.007Z,10.50
2023-03-18T11:22:52.231Z,10.56
2023-03-18T11:25:24.691Z,10.68
2023-03-18T11:28:03.600Z,10.76
2023-03-18T11:30:46.991Z,10.99
2023-03-18T11:33:17.789Z,11.14
2023-03-18T11:35:58.764Z,11.08
2023-03-18T11:38:29.883Z,11.19
2023-03-18T11:41:18.494Z,11.32
2023-03-18T11:44:11.690Z,11.48
2023-03-18T11:47:16.736Z,11.53
2023-03-18T11:49:45.018Z,11.38
2023-03-18T11:52:40.003Z,11.38
2023-03-18T11:55:18.668Z,11.26
2023-03-18T11:58:00.145Z,11.20
2023-03-18T12:00:34.601Z,11.31
2023-03-18T12:03:31.519Z,11.36
2023-03-18T12:06:14.705Z,11.27
2023-03-18T12:09:21.571Z,11.04
2023-03-18T12:11:49.414Z,11.19
2023-03-18T12:14:26.105Z,11.28
2023-03-18T12:17:08.508Z,11.34
2023-03-18T12:19:57.681Z,11.47
2023-03-18T12:22:51.608Z,11.56
2023-03-18T12:25:30.898Z,11.68
2023-03-18T12:28:11.339Z,11.77
2023-03-18T12:30:48.060Z,11.74
2023-03-18T12:33:37.499Z,11.80
2023-03-18T12:36:24.280Z,11.83
2023-03-18T12:39:31.128Z,11.85
2023-03-18T12:42:03.386Z,12.00
2023-03-18T12:44:46.951Z,11.95
2023-03-18T12:47:15.692Z,11.85
2023-03-18T12:49:57.015Z,11.87
2023-03-18T12:52:46.829Z,11.77
2023-03-18T12:55:48.125Z,11.76
2023-03-18T12:58:19.583Z,11.86
2023-03-18T13:00:54.173Z,11.98
2023-03-18T13:03:35.060Z,12.00
2023-03-18T13:06:23.326Z,11.94
2023-03-18T13:09:22.465Z,11.99
2023-03-18T13:12:12.877Z,12.01
2023-03-18T13:15:25.918Z,12.05
2023-03-18T13:17:57.466Z,12.06
2023-03-18T13:20:29.187Z,12.01
2023-03-18T13:23:16.411Z,12.05
2023-03-18T13:26:05.962Z,12.05
2023-03-18T13:28:45.435Z,12.16
2023-03-18T13:31:39.354Z,12.27
2023-03-18T13:34:45.450Z,12.14
2023-03-18T13:37:30.724Z,12.10
2023-03-18T13:40:36.857Z,12.21
2023-03-18T13:43:06.351Z,12.29
2023-03-18T13:45:39.938Z,12.25
2023-03-18T13:48:08.788Z,12.18
2023-03-18T13:50:40.332Z,12.14
2023-03-18T13:53:29.699Z,12.08
2023-03-18T13:56:00.776Z,12.01
2023-03-18T13:58:41.839Z,12.03
2023-03-18T14:01:33.618Z,12.08
2023-03-18T14:04:33.954Z,12.12
2023-03-18T14:07:23.108Z,12.02
2023-03-18T14:10:18.457Z,12.06
2023-03-18T14:12:48.170Z,12.06
2023-03-18T14:15:17.004Z,12.01
2023-03-18T14:18:03.458Z,11.84
2023-03-18T14:20:39.606Z,11.77
2023-03-18T14:23:28.208Z,11.78
2023-03-18T14:26:24.730Z,11.83
2023-03-18T14:29:22.903Z,11.89
2023-03-18T14:31:58.244Z,11.94
2023-03-18T14:34:28.526Z,11.93
2023-03-18T14:36:56.813Z,11.92
2023-03-18T14:39:43.584Z,11.87
2023-03-18T14:42:32.194Z,11.85
2023-03-18T14:45:12.153Z,11.78
2023-03-18T14:47:46.822Z,11.77
2023-03-18T14:50:29.557Z,11.74
2023-03-18T14:53:03.312Z,11.74
2023-03-18T14:55:34.293Z,11.69
2023-03-18T14:58:03.272Z,11.70
2023-03-18T15:00:36.010Z,11.63
2023-03-18T15:03:11.920Z,11.60
2023-03-18T15:05:42.394Z,11.63
2023-03-18T15:08:18.653Z,11.59
2023-03-18T15:10:49.936Z,11.52
2023-03-18T15:13:20.386Z,11.50
2023-03-18T15:15:49.198Z,11.45
2023-03-18T15:18:34.569Z,11.47
2023-03-18T15:21:28.950Z,11.46
2023-03-18T15:23:57.524Z,11.46
2023-03-18T15:26:30.971Z,11.40
2023-03-18T15:29:00.769Z,11.36
2023-03-18T15:31:39.296Z,11.33
2023-03-18T15:34:16.076Z,11.27
2023-03-18T15:36:46.849Z,11.28
2023-03-18T15:39:33.935Z,11.17
2023-03-18T15:42:03.794Z,11.01
2023-03-18T15:44:35.765Z,11.27
2023-03-18T15:47:11.307Z,11.24
2023-03-18T15:49:51.728Z,11.25
2023-03-18T15:52:25.278Z,11.22
2023-03-18T15:54:53.949Z,11.17
2023-03-18T15:57:43.614Z,11.17
2023-03-18T16:00:13.291Z,11.11
2023-03-18T16:02:41.978Z,11.13
2023-03-18T16:05:18.319Z,11.13
2023-03-18T16:07:47.313Z,11.03
2023-03-18T16:10:20.922Z,11.06
2023-03-18T16:12:55.892Z,11.06
2023-03-18T16:15:25.554Z,10.97
2023-03-18T16:17:55.122Z,11.00
2023-03-18T16:20:24.590Z,11.04
2023-03-18T16:22:52.736Z,10.99
2023-03-18T16:25:20.573Z,10.94
2023-03-18T16:27:50.503Z,10.87
2023-03-18T16:30:30.388Z,10.82
2023-03-18T16:32:59.313Z,10.84
2023-03-18T16:35:31.171Z,10.78
2023-03-18T16:38:00.583Z,10.74
2023-03-18T16:40:33.097Z,10.77
2023-03-18T16:43:01.538Z,10.82
2023-03-18T16:45:31.273Z,10.76
2023-03-18T16:48:02.499Z,10.71
2023-03-18T16:50:34.410Z,10.60
2023-03-18T16:53:03.642Z,10.56
2023-03-18T16:55:31.797Z,10.61
2023-03-18T16:58:01.042Z,10.63
2023-03-18T17:00:32.964Z,10.65
2023-03-18T17:03:02.404Z,10.66
2023-03-18T17:05:31.419Z,10.62
2023-03-18T17:07:59.852Z,10.65
2023-03-18T17:10:28.746Z,10.59
2023-03-18T17:13:02.405Z,10.65
2023-03-18T17:15:32.445Z,10.60
2023-03-18T17:18:01.899Z,10.56
2023-03-18T17:20:32.604Z,10.63
2023-03-18T18:27:16.492Z,9.91
2023-03-18T18:29:46.217Z,9.90
2023-03-18T18:32:15.800Z,9.91
2023-03-18T18:34:44.322Z,9.85
2023-03-18T18:37:13.150Z,9.79
2023-03-18T18:39:42.867Z,9.77
2023-03-18T18:42:14.521Z,9.79
2023-03-18T18:44:43.815Z,9.73
2023-03-18T18:47:20.409Z,9.66
2023-03-18T18:49:49.032Z,9.65
2023-03-18T18:52:17.134Z,9.66
2023-03-18T18:54:45.609Z,9.65
2023-03-18T18:57:27.039Z,9.56
2023-03-18T18:59:55.917Z,9.53
2023-03-18T19:02:32.622Z,9.50
2023-03-18T19:05:02.913Z,9.45
2023-03-18T19:07:33.861Z,9.43
2023-03-18T19:10:02.368Z,9.41
2023-03-18T19:12:30.931Z,9.42
2023-03-18T19:14:59.924Z,9.38
2023-03-18T19:17:28.063Z,9.36
2023-03-18T19:19:56.302Z,9.22
2023-03-18T19:22:25.736Z,9.26
2023-03-18T19:24:55.049Z,9.25
2023-03-18T19:27:24.068Z,9.22
2023-03-18T19:30:00.485Z,9.17
2023-03-18T19:32:28.250Z,9.15
2023-03-18T19:34:56.623Z,9.13
2023-03-18T19:37:28.328Z,9.14
2023-03-18T19:39:57.323Z,9.09
2023-03-18T19:42:25.790Z,9.07
2023-03-18T19:44:54.376Z,9.04
2023-03-18T19:47:27.040Z,8.99
2023-03-18T19:49:56.144Z,9.02
2023-03-18T19:52:26.288Z,8.94
2023-03-18T19:54:55.890Z,8.92
2023-03-18T19:57:28.516Z,8.87
2023-03-18T19:59:58.752Z,8.90
2023-03-18T20:02:31.973Z,8.88
2023-03-18T20:05:03.727Z,8.79
2023-03-18T20:07:33.210Z,8.77
2023-03-18T20:10:01.329Z,8.71
2023-03-18T20:12:31.937Z,8.78
2023-03-18T20:15:00.253Z,8.74
2023-03-18T20:17:31.484Z,8.73
2023-03-18T20:20:00.079Z,8.64
2023-03-18T20:22:34.072Z,8.64
2023-03-18T20:25:04.120Z,8.57
2023-03-18T20:27:33.104Z,8.56
2023-03-18T20:30:01.788Z,8.46
2023-03-18T20:32:30.186Z,8.55
2023-03-18T20:34:58.395Z,8.50
2023-03-18T20:37:33.703Z,8.33
2023-03-18T20:40:07.588Z,8.39
2023-03-18T20:42:35.178Z,8.31
2023-03-18T20:45:03.564Z,8.32
2023-03-18T20:47:31.812Z,8.25
2023-03-18T20:49:59.978Z,8.22
2023-03-18T20:52:31.596Z,8.21
2023-03-18T20:55:00.092Z,8.08
2023-03-18T20:57:28.244Z,8.10
2023-03-18T20:59:56.984Z,8.11
2023-03-18T21:02:33.928Z,8.05
2023-03-18T21:05:03.531Z,8.01
2023-03-18T21:07:31.680Z,8.02
2023-03-18T21:10:01.257Z,7.97
2023-03-18T21:12:29.047Z,7.88
2023-03-18T21:14:57.040Z,7.95
2023-03-18T21:17:27.634Z,7.84
2023-03-18T21:20:05.005Z,7.91
2023-03-18T21:22:39.811Z,7.84
2023-03-18T21:25:10.954Z,7.80
2023-03-18T21:27:38.961Z,7.82
2023-03-18T21:30:09.850Z,7.79
2023-03-18T21:32:39.194Z,7.81
2023-03-18T21:35:12.578Z,7.83
2023-03-18T21:37:40.434Z,7.82
2023-03-18T21:40:15.443Z,7.72
2023-03-18T21:42:43.994Z,7.75
2023-03-18T21:45:19.302Z,7.79
2023-03-18T21:51:39.102Z,7.73
2023-03-18T21:54:17.589Z,7.67
2023-03-18T21:56:46.677Z,7.65
2023-03-18T21:59:14.701Z,7.68
2023-03-18T22:01:43.011Z,7.68
2023-03-18T22:04:10.665Z,7.66
2023-03-18T22:06:39.016Z,7.64
2023-03-18T22:09:07.571Z,7.60
2023-03-18T22:11:36.281Z,7.62
2023-03-18T22:14:04.197Z,7.60
2023-03-18T22:16:32.781Z,7.57
2023-03-18T22:19:01.350Z,7.54
2023-03-18T22:21:30.019Z,7.54
2023-03-18T22:24:00.457Z,7.49
2023-03-18T22:26:29.189Z,7.47
2023-03-18T22:28:56.984Z,7.47
2023-03-18T22:31:28.949Z,7.47
2023-03-18T22:33:58.510Z,7.44
2023-03-18T22:36:29.064Z,7.41
2023-03-18T22:38:57.137Z,7.36
2023-03-18T22:41:30.604Z,7.29
2023-03-18T22:44:00.136Z,7.30
2023-03-18T22:46:28.830Z,7.26
2023-03-18T22:48:57.289Z,7.21
2023-03-18T22:51:30.833Z,7.15
2023-03-18T22:53:58.745Z,7.21
2023-03-18T22:56:27.197Z,7.24
2023-03-18T22:58:55.085Z,7.18
2023-03-18T23:01:28.560Z,7.13
2023-03-18T23:03:56.469Z,7.16
2023-03-18T23:06:24.940Z,7.10
2023-03-18T23:08:52.781Z,7.09
2023-03-18T23:11:21.220Z,7.05
2023-03-18T23:13:54.090Z,7.05
2023-03-18T23:16:23.977Z,7.04
2023-03-18T23:18:52.365Z,6.98
2023-03-18T23:21:23.290Z,6.90
2023-03-18T23:23:52.642Z,6.86
2023-03-18T23:26:21.219Z,6.89
2023-03-18T23:28:49.859Z,6.91
2023-03-18T23:31:18.534Z,6.89
2023-03-18T23:33:47.387Z,6.83
2023-03-18T23:36:16.298Z,6.77
2023-03-18T23:38:43.794Z,6.73
2023-03-18T23:41:13.012Z,6.73
2023-03-18T23:43:40.797Z,6.64
2023-03-18T23:46:09.596Z,6.50
2023-03-18T23:48:37.870Z,6.49
2023-03-18T23:51:06.103Z,6.49
2023-03-18T23:53:33.952Z,6.40
2023-03-18T23:56:02.102Z,6.33
2023-03-18T23:58:29.839Z,6.31
